sensor_id;sensor_type;location;lat;lon;timestamp;temperature;humidity
5520;DHT22;2782;52.362;10.012;2023-04-25T00:00:08;18.70;77.60
5520;DHT22;2782;52.362;10.012;2023-04-25T00:01:09;18.70;77.60
5520;DHT22;2782;52.362;10.012;2023-04-25T00:02:14;18.70;77.70
5520;DHT22;2782;52.362;10.012;2023-04-25T00:03:15;18.70;77.60
5520;DHT22;2782;52.362;10.012;2023-04-25T00:04:18;18.70;77.70
5520;DHT22;2782;52.362;10.012;2023-04-25T00:05:19;18.70;77.70
5520;DHT22;2782;52.362;10.012;2023-04-25T00:06:24;18.70;77.60
5520;DHT22;2782;52.362;10.012;2023-04-25T00:07:26;18.70;77.70
5520;DHT22;2782;52.362;10.012;2023-04-25T00:08:28;18.70;77.70
5520;DHT22;2782;52.362;10.012;2023-04-25T00:09:29;18.70;77.60
5520;DHT22;2782;52.362;10.012;2023-04-25T00:10:31;18.70;77.70
5520;DHT22;2782;52.362;10.012;2023-04-25T00:11:32;18.70;77.70
5520;DHT22;2782;52.362;10.012;2023-04-25T00:12:33;18.70;77.60
5520;DHT22;2782;52.362;10.012;2023-04-25T00:13:34;18.70;77.60
5520;DHT22;2782;52.362;10.012;2023-04-25T00:14:36;18.70;77.60
5520;DHT22;2782;52.362;10.012;2023-04-25T00:15:36;18.70;77.60
5520;DHT22;2782;52.362;10.012;2023-04-25T00:16:39;18.70;77.70
5520;DHT22;2782;52.362;10.012;2023-04-25T00:17:42;18.70;77.70
5520;DHT22;2782;52.362;10.012;2023-04-25T00:18:45;18.70;77.70
5520;DHT22;2782;52.362;10.012;2023-04-25T00:19:51;18.70;77.60
5520;DHT22;2782;52.362;10.012;2023-04-25T00:20:53;18.70;77.70
5520;DHT22;2782;52.362;10.012;2023-04-25T00:21:53;18.70;77.70
5520;DHT22;2782;52.362;10.012;2023-04-25T00:22:55;18.70;77.70
5520;DHT22;2782;52.362;10.012;2023-04-25T00:23:56;18.70;77.60
5520;DHT22;2782;52.362;10.012;2023-04-25T00:24:57;18.70;77.70
5520;DHT22;2782;52.362;10.012;2023-04-25T00:26:00;18.70;77.70
5520;DHT22;2782;52.362;10.012;2023-04-25T00:27:02;18.70;77.80
5520;DHT22;2782;52.362;10.012;2023-04-25T00:28:03;18.60;77.70
5520;DHT22;2782;52.362;10.012;2023-04-25T00:29:05;18.60;77.70
5520;DHT22;2782;52.362;10.012;2023-04-25T00:30:06;18.60;77.60
5520;DHT22;2782;52.362;10.012;2023-04-25T00:31:08;18.60;77.80
5520;DHT22;2782;52.362;10.012;2023-04-25T00:32:08;18.60;77.80
5520;DHT22;2782;52.362;10.012;2023-04-25T00:33:11;18.60;77.80
5520;DHT22;2782;52.362;10.012;2023-04-25T00:34:13;18.60;77.80
5520;DHT22;2782;52.362;10.012;2023-04-25T00:35:14;18.60;77.80
5520;DHT22;2782;52.362;10.012;2023-04-25T00:36:15;18.60;77.70
5520;DHT22;2782;52.362;10.012;2023-04-25T00:37:17;18.60;77.70
5520;DHT22;2782;52.362;10.012;2023-04-25T00:38:20;18.60;77.70
5520;DHT22;2782;52.362;10.012;2023-04-25T00:39:20;18.60;77.70
5520;DHT22;2782;52.362;10.012;2023-04-25T00:40:22;18.60;77.80
5520;DHT22;2782;52.362;10.012;2023-04-25T00:41:24;18.60;77.80
5520;DHT22;2782;52.362;10.012;2023-04-25T00:42:27;18.60;77.70
5520;DHT22;2782;52.362;10.012;2023-04-25T00:43:28;18.60;77.70
5520;DHT22;2782;52.362;10.012;2023-04-25T00:44:31;18.60;77.70
5520;DHT22;2782;52.362;10.012;2023-04-25T00:45:37;18.60;77.80
5520;DHT22;2782;52.362;10.012;2023-04-25T00:46:39;18.60;77.80
5520;DHT22;2782;52.362;10.012;2023-04-25T00:47:40;18.60;77.70
5520;DHT22;2782;52.362;10.012;2023-04-25T00:48:43;18.60;78.50
5520;DHT22;2782;52.362;10.012;2023-04-25T00:49:44;18.60;77.80
5520;DHT22;2782;52.362;10.012;2023-04-25T00:50:50;18.60;77.90
5520;DHT22;2782;52.362;10.012;2023-04-25T00:51:51;18.60;77.90
5520;DHT22;2782;52.362;10.012;2023-04-25T00:52:53;18.60;78.00
5520;DHT22;2782;52.362;10.012;2023-04-25T00:53:54;18.60;78.00
5520;DHT22;2782;52.362;10.012;2023-04-25T00:54:56;18.60;78.00
5520;DHT22;2782;52.362;10.012;2023-04-25T00:55:57;18.60;77.90
5520;DHT22;2782;52.362;10.012;2023-04-25T00:56:59;18.60;78.70
5520;DHT22;2782;52.362;10.012;2023-04-25T00:58:01;18.60;78.00
5520;DHT22;2782;52.362;10.012;2023-04-25T00:59:03;18.60;78.10
5520;DHT22;2782;52.362;10.012;2023-04-25T01:00:06;18.60;78.00
5520;DHT22;2782;52.362;10.012;2023-04-25T01:01:10;18.60;78.00
5520;DHT22;2782;52.362;10.012;2023-04-25T01:02:11;18.60;78.00
5520;DHT22;2782;52.362;10.012;2023-04-25T01:03:12;18.60;77.90
5520;DHT22;2782;52.362;10.012;2023-04-25T01:04:14;18.50;77.80
5520;DHT22;2782;52.362;10.012;2023-04-25T01:05:16;18.50;77.70
5520;DHT22;2782;52.362;10.012;2023-04-25T01:06:19;18.60;77.80
5520;DHT22;2782;52.362;10.012;2023-04-25T01:07:20;18.60;77.80
5520;DHT22;2782;52.362;10.012;2023-04-25T01:08:23;18.50;77.80
5520;DHT22;2782;52.362;10.012;2023-04-25T01:09:25;18.50;77.80
5520;DHT22;2782;52.362;10.012;2023-04-25T01:10:26;18.60;77.80
5520;DHT22;2782;52.362;10.012;2023-04-25T01:11:28;18.60;78.70
5520;DHT22;2782;52.362;10.012;2023-04-25T01:12:29;18.50;77.80
5520;DHT22;2782;52.362;10.012;2023-04-25T01:13:31;18.60;77.80
5520;DHT22;2782;52.362;10.012;2023-04-25T01:14:32;18.50;77.70
5520;DHT22;2782;52.362;10.012;2023-04-25T01:15:34;18.50;77.70
5520;DHT22;2782;52.362;10.012;2023-04-25T01:16:36;18.50;77.70
5520;DHT22;2782;52.362;10.012;2023-04-25T01:17:37;18.60;77.80
5520;DHT22;2782;52.362;10.012;2023-04-25T01:18:40;18.50;77.70
5520;DHT22;2782;52.362;10.012;2023-04-25T01:19:44;18.50;77.60
5520;DHT22;2782;52.362;10.012;2023-04-25T01:20:47;18.50;77.70
5520;DHT22;2782;52.362;10.012;2023-04-25T01:21:53;18.50;77.70
5520;DHT22;2782;52.362;10.012;2023-04-25T01:22:54;18.50;77.60
5520;DHT22;2782;52.362;10.012;2023-04-25T01:23:56;18.50;77.70
5520;DHT22;2782;52.362;10.012;2023-04-25T01:24:57;18.50;77.60
5520;DHT22;2782;52.362;10.012;2023-04-25T01:26:00;18.50;77.70
5520;DHT22;2782;52.362;10.012;2023-04-25T01:27:02;18.50;77.70
5520;DHT22;2782;52.362;10.012;2023-04-25T01:28:04;18.50;77.60
5520;DHT22;2782;52.362;10.012;2023-04-25T01:29:06;18.50;77.70
5520;DHT22;2782;52.362;10.012;2023-04-25T01:30:09;18.50;77.60
5520;DHT22;2782;52.362;10.012;2023-04-25T01:31:11;18.50;77.70
5520;DHT22;2782;52.362;10.012;2023-04-25T01:32:13;18.50;77.60
5520;DHT22;2782;52.362;10.012;2023-04-25T01:33:15;18.50;77.60
5520;DHT22;2782;52.362;10.012;2023-04-25T01:34:17;18.50;77.70
5520;DHT22;2782;52.362;10.012;2023-04-25T01:35:18;18.50;77.60
5520;DHT22;2782;52.362;10.012;2023-04-25T01:36:20;18.50;77.70
5520;DHT22;2782;52.362;10.012;2023-04-25T01:37:23;18.50;77.60
5520;DHT22;2782;52.362;10.012;2023-04-25T01:38:24;18.50;77.60
5520;DHT22;2782;52.362;10.012;2023-04-25T01:39:25;18.50;77.60
5520;DHT22;2782;52.362;10.012;2023-04-25T01:40:27;18.50;77.50
5520;DHT22;2782;52.362;10.012;2023-04-25T01:41:28;18.50;77.60
5520;DHT22;2782;52.362;10.012;2023-04-25T01:42:30;18.50;77.70
5520;DHT22;2782;52.362;10.012;2023-04-25T01:43:31;18.50;77.60
5520;DHT22;2782;52.362;10.012;2023-04-25T01:44:33;18.50;77.60
5520;DHT22;2782;52.362;10.012;2023-04-25T01:45:34;18.50;77.60
5520;DHT22;2782;52.362;10.012;2023-04-25T01:46:37;18.50;77.60
5520;DHT22;2782;52.362;10.012;2023-04-25T01:47:37;18.50;77.60
5520;DHT22;2782;52.362;10.012;2023-04-25T01:48:40;18.50;77.70
5520;DHT22;2782;52.362;10.012;2023-04-25T01:49:40;18.50;77.60
5520;DHT22;2782;52.362;10.012;2023-04-25T01:50:42;18.50;77.60
5520;DHT22;2782;52.362;10.012;2023-04-25T01:51:43;18.50;77.60
5520;DHT22;2782;52.362;10.012;2023-04-25T01:52:46;18.50;77.60
5520;DHT22;2782;52.362;10.012;2023-04-25T01:53:47;18.40;77.50
5520;DHT22;2782;52.362;10.012;2023-04-25T01:54:49;18.50;77.60
5520;DHT22;2782;52.362;10.012;2023-04-25T01:55:51;18.40;77.60
5520;DHT22;2782;52.362;10.012;2023-04-25T01:56:52;18.50;78.40
5520;DHT22;2782;52.362;10.012;2023-04-25T01:57:53;18.50;77.90
5520;DHT22;2782;52.362;10.012;2023-04-25T01:58:55;18.40;77.80
5520;DHT22;2782;52.362;10.012;2023-04-25T02:00:00;18.40;77.80
5520;DHT22;2782;52.362;10.012;2023-04-25T02:04:18;18.40;77.80
5520;DHT22;2782;52.362;10.012;2023-04-25T02:05:19;18.40;77.80
5520;DHT22;2782;52.362;10.012;2023-04-25T02:06:21;18.40;77.70
5520;DHT22;2782;52.362;10.012;2023-04-25T02:07:22;18.40;77.80
5520;DHT22;2782;52.362;10.012;2023-04-25T02:08:24;18.40;77.80
5520;DHT22;2782;52.362;10.012;2023-04-25T02:09:26;18.40;77.70
5520;DHT22;2782;52.362;10.012;2023-04-25T02:10:27;18.40;77.80
5520;DHT22;2782;52.362;10.012;2023-04-25T02:11:28;18.40;77.80
5520;DHT22;2782;52.362;10.012;2023-04-25T02:12:29;18.40;77.70
5520;DHT22;2782;52.362;10.012;2023-04-25T02:13:31;18.40;77.70
5520;DHT22;2782;52.362;10.012;2023-04-25T02:14:31;18.40;77.70
5520;DHT22;2782;52.362;10.012;2023-04-25T02:15:33;18.40;77.50
5520;DHT22;2782;52.362;10.012;2023-04-25T02:16:34;18.40;77.50
5520;DHT22;2782;52.362;10.012;2023-04-25T02:17:36;18.40;77.50
5520;DHT22;2782;52.362;10.012;2023-04-25T02:18:36;18.40;77.60
5520;DHT22;2782;52.362;10.012;2023-04-25T02:19:39;18.40;77.50
5520;DHT22;2782;52.362;10.012;2023-04-25T02:20:40;18.40;77.50
5520;DHT22;2782;52.362;10.012;2023-04-25T02:21:41;18.40;77.40
5520;DHT22;2782;52.362;10.012;2023-04-25T02:22:44;18.40;77.40
5520;DHT22;2782;52.362;10.012;2023-04-25T02:23:48;18.40;77.50
5520;DHT22;2782;52.362;10.012;2023-04-25T02:24:49;18.40;77.30
5520;DHT22;2782;52.362;10.012;2023-04-25T02:25:52;18.40;77.30
5520;DHT22;2782;52.362;10.012;2023-04-25T02:26:53;18.40;77.30
5520;DHT22;2782;52.362;10.012;2023-04-25T02:27:55;18.40;77.30
5520;DHT22;2782;52.362;10.012;2023-04-25T02:28:57;18.40;77.40
5520;DHT22;2782;52.362;10.012;2023-04-25T02:29:58;18.40;77.30
5520;DHT22;2782;52.362;10.012;2023-04-25T02:30:59;18.40;77.30
5520;DHT22;2782;52.362;10.012;2023-04-25T02:32:01;18.40;77.40
5520;DHT22;2782;52.362;10.012;2023-04-25T02:33:01;18.40;77.30
5520;DHT22;2782;52.362;10.012;2023-04-25T02:34:03;18.40;77.30
5520;DHT22;2782;52.362;10.012;2023-04-25T02:35:05;18.40;77.40
5520;DHT22;2782;52.362;10.012;2023-04-25T02:36:08;18.40;77.30
5520;DHT22;2782;52.362;10.012;2023-04-25T02:37:08;18.40;77.20
5520;DHT22;2782;52.362;10.012;2023-04-25T02:38:10;18.40;77.30
5520;DHT22;2782;52.362;10.012;2023-04-25T02:39:12;18.40;77.30
5520;DHT22;2782;52.362;10.012;2023-04-25T02:40:14;18.40;77.20
5520;DHT22;2782;52.362;10.012;2023-04-25T02:41:15;18.40;77.20
5520;DHT22;2782;52.362;10.012;2023-04-25T02:42:16;18.40;77.20
5520;DHT22;2782;52.362;10.012;2023-04-25T02:43:18;18.40;77.20
5520;DHT22;2782;52.362;10.012;2023-04-25T02:44:20;18.40;77.30
5520;DHT22;2782;52.362;10.012;2023-04-25T02:45:21;18.40;77.30
5520;DHT22;2782;52.362;10.012;2023-04-25T02:46:23;18.40;77.30
5520;DHT22;2782;52.362;10.012;2023-04-25T02:47:23;18.30;77.20
5520;DHT22;2782;52.362;10.012;2023-04-25T02:48:25;18.40;77.30
5520;DHT22;2782;52.362;10.012;2023-04-25T02:49:26;18.40;77.30
5520;DHT22;2782;52.362;10.012;2023-04-25T02:50:27;18.40;77.30
5520;DHT22;2782;52.362;10.012;2023-04-25T02:51:28;18.40;77.30
5520;DHT22;2782;52.362;10.012;2023-04-25T02:52:30;18.30;77.30
5520;DHT22;2782;52.362;10.012;2023-04-25T02:53:31;18.40;77.30
5520;DHT22;2782;52.362;10.012;2023-04-25T02:54:34;18.30;77.20
5520;DHT22;2782;52.362;10.012;2023-04-25T02:55:34;18.30;77.10
5520;DHT22;2782;52.362;10.012;2023-04-25T02:56:36;18.40;77.30
5520;DHT22;2782;52.362;10.012;2023-04-25T02:57:37;18.40;77.40
5520;DHT22;2782;52.362;10.012;2023-04-25T02:58:39;18.40;77.40
5520;DHT22;2782;52.362;10.012;2023-04-25T02:59:40;18.40;77.30
5520;DHT22;2782;52.362;10.012;2023-04-25T03:00:41;18.30;77.20
5520;DHT22;2782;52.362;10.012;2023-04-25T03:01:42;18.40;77.30
5520;DHT22;2782;52.362;10.012;2023-04-25T03:02:43;18.30;77.20
5520;DHT22;2782;52.362;10.012;2023-04-25T03:03:44;18.30;77.20
5520;DHT22;2782;52.362;10.012;2023-04-25T03:04:46;18.40;77.40
5520;DHT22;2782;52.362;10.012;2023-04-25T03:05:47;18.30;77.10
5520;DHT22;2782;52.362;10.012;2023-04-25T03:06:48;18.30;77.10
5520;DHT22;2782;52.362;10.012;2023-04-25T03:07:50;18.30;77.10
5520;DHT22;2782;52.362;10.012;2023-04-25T03:08:51;18.30;77.10
5520;DHT22;2782;52.362;10.012;2023-04-25T03:09:53;18.30;77.10
5520;DHT22;2782;52.362;10.012;2023-04-25T03:10:55;18.30;77.00
5520;DHT22;2782;52.362;10.012;2023-04-25T03:11:57;18.30;76.90
5520;DHT22;2782;52.362;10.012;2023-04-25T03:12:59;18.30;77.00
5520;DHT22;2782;52.362;10.012;2023-04-25T03:13:59;18.30;76.90
5520;DHT22;2782;52.362;10.012;2023-04-25T03:15:01;18.30;77.00
5520;DHT22;2782;52.362;10.012;2023-04-25T03:16:02;18.30;77.00
5520;DHT22;2782;52.362;10.012;2023-04-25T03:17:04;18.30;76.90
5520;DHT22;2782;52.362;10.012;2023-04-25T03:18:05;18.30;76.90
5520;DHT22;2782;52.362;10.012;2023-04-25T03:19:06;18.30;76.90
5520;DHT22;2782;52.362;10.012;2023-04-25T03:20:08;18.30;76.90
5520;DHT22;2782;52.362;10.012;2023-04-25T03:21:10;18.30;77.60
5520;DHT22;2782;52.362;10.012;2023-04-25T03:22:10;18.30;76.90
5520;DHT22;2782;52.362;10.012;2023-04-25T03:23:12;18.30;76.80
5520;DHT22;2782;52.362;10.012;2023-04-25T03:24:13;18.30;76.90
5520;DHT22;2782;52.362;10.012;2023-04-25T03:25:17;18.30;76.80
5520;DHT22;2782;52.362;10.012;2023-04-25T03:26:17;18.30;76.80
5520;DHT22;2782;52.362;10.012;2023-04-25T03:27:19;18.30;76.80
5520;DHT22;2782;52.362;10.012;2023-04-25T03:28:20;18.30;76.80
5520;DHT22;2782;52.362;10.012;2023-04-25T03:29:21;18.30;76.80
5520;DHT22;2782;52.362;10.012;2023-04-25T03:30:25;18.30;76.90
5520;DHT22;2782;52.362;10.012;2023-04-25T03:31:26;18.30;76.80
5520;DHT22;2782;52.362;10.012;2023-04-25T03:32:27;18.30;76.60
5520;DHT22;2782;52.362;10.012;2023-04-25T03:33:28;18.30;76.70
5520;DHT22;2782;52.362;10.012;2023-04-25T03:34:29;18.30;76.60
5520;DHT22;2782;52.362;10.012;2023-04-25T03:35:31;18.30;76.60
5520;DHT22;2782;52.362;10.012;2023-04-25T03:36:31;18.30;76.80
5520;DHT22;2782;52.362;10.012;2023-04-25T03:37:33;18.30;76.70
5520;DHT22;2782;52.362;10.012;2023-04-25T03:38:33;18.30;76.60
5520;DHT22;2782;52.362;10.012;2023-04-25T03:39:35;18.30;76.70
5520;DHT22;2782;52.362;10.012;2023-04-25T03:40:37;18.30;76.70
5520;DHT22;2782;52.362;10.012;2023-04-25T03:41:38;18.30;76.70
5520;DHT22;2782;52.362;10.012;2023-04-25T03:42:39;18.30;76.60
5520;DHT22;2782;52.362;10.012;2023-04-25T03:43:41;18.30;76.70
5520;DHT22;2782;52.362;10.012;2023-04-25T03:44:42;18.30;76.80
5520;DHT22;2782;52.362;10.012;2023-04-25T03:45:43;18.20;76.50
5520;DHT22;2782;52.362;10.012;2023-04-25T03:46:44;18.30;76.60
5520;DHT22;2782;52.362;10.012;2023-04-25T03:47:45;18.20;76.50
5520;DHT22;2782;52.362;10.012;2023-04-25T03:48:46;18.20;76.60
5520;DHT22;2782;52.362;10.012;2023-04-25T03:49:47;18.30;76.70
5520;DHT22;2782;52.362;10.012;2023-04-25T03:50:49;18.20;76.50
5520;DHT22;2782;52.362;10.012;2023-04-25T03:51:51;18.20;76.60
5520;DHT22;2782;52.362;10.012;2023-04-25T03:52:52;18.20;76.70
5520;DHT22;2782;52.362;10.012;2023-04-25T03:53:53;18.20;76.90
5520;DHT22;2782;52.362;10.012;2023-04-25T03:54:54;18.20;76.90
5520;DHT22;2782;52.362;10.012;2023-04-25T03:55:57;18.20;77.00
5520;DHT22;2782;52.362;10.012;2023-04-25T03:56:57;18.20;77.00
5520;DHT22;2782;52.362;10.012;2023-04-25T03:57:59;18.20;77.00
5520;DHT22;2782;52.362;10.012;2023-04-25T03:59:00;18.20;77.10
5520;DHT22;2782;52.362;10.012;2023-04-25T04:00:03;18.20;77.00
5520;DHT22;2782;52.362;10.012;2023-04-25T04:01:04;18.20;76.90
5520;DHT22;2782;52.362;10.012;2023-04-25T04:02:07;18.20;77.10
5520;DHT22;2782;52.362;10.012;2023-04-25T04:03:08;18.20;77.10
5520;DHT22;2782;52.362;10.012;2023-04-25T04:04:11;18.30;77.40
5520;DHT22;2782;52.362;10.012;2023-04-25T04:05:12;18.20;77.20
5520;DHT22;2782;52.362;10.012;2023-04-25T04:06:13;18.30;77.30
5520;DHT22;2782;52.362;10.012;2023-04-25T04:07:15;18.30;77.30
5520;DHT22;2782;52.362;10.012;2023-04-25T04:08:17;18.30;77.30
5520;DHT22;2782;52.362;10.012;2023-04-25T04:09:17;18.30;77.40
5520;DHT22;2782;52.362;10.012;2023-04-25T04:10:20;18.30;77.40
5520;DHT22;2782;52.362;10.012;2023-04-25T04:11:22;18.30;77.40
5520;DHT22;2782;52.362;10.012;2023-04-25T04:12:23;18.30;77.50
5520;DHT22;2782;52.362;10.012;2023-04-25T04:13:25;18.30;77.60
5520;DHT22;2782;52.362;10.012;2023-04-25T04:14:28;18.30;77.60
5520;DHT22;2782;52.362;10.012;2023-04-25T04:15:29;18.30;77.60
5520;DHT22;2782;52.362;10.012;2023-04-25T04:16:33;18.30;77.90
5520;DHT22;2782;52.362;10.012;2023-04-25T04:17:34;18.30;78.10
5520;DHT22;2782;52.362;10.012;2023-04-25T04:18:35;18.30;78.30
5520;DHT22;2782;52.362;10.012;2023-04-25T04:19:36;18.30;79.00
5520;DHT22;2782;52.362;10.012;2023-04-25T04:20:39;18.40;78.30
5520;DHT22;2782;52.362;10.012;2023-04-25T04:21:39;18.40;78.30
5520;DHT22;2782;52.362;10.012;2023-04-25T04:22:41;18.40;78.00
5520;DHT22;2782;52.362;10.012;2023-04-25T04:23:42;18.40;77.30
5520;DHT22;2782;52.362;10.012;2023-04-25T04:24:43;18.40;77.10
5520;DHT22;2782;52.362;10.012;2023-04-25T04:25:47;18.40;77.20
5520;DHT22;2782;52.362;10.012;2023-04-25T04:26:50;18.50;77.40
5520;DHT22;2782;52.362;10.012;2023-04-25T04:27:52;18.50;77.40
5520;DHT22;2782;52.362;10.012;2023-04-25T04:28:55;18.50;77.10
5520;DHT22;2782;52.362;10.012;2023-04-25T04:29:56;18.50;77.10
5520;DHT22;2782;52.362;10.012;2023-04-25T04:30:58;18.50;77.10
5520;DHT22;2782;52.362;10.012;2023-04-25T04:31:58;18.50;77.00
5520;DHT22;2782;52.362;10.012;2023-04-25T04:33:01;18.50;76.90
5520;DHT22;2782;52.362;10.012;2023-04-25T04:34:02;18.50;76.90
5520;DHT22;2782;52.362;10.012;2023-04-25T04:35:06;18.60;77.00
5520;DHT22;2782;52.362;10.012;2023-04-25T04:36:07;18.60;77.00
5520;DHT22;2782;52.362;10.012;2023-04-25T04:37:08;18.60;76.20
5520;DHT22;2782;52.362;10.012;2023-04-25T04:38:10;18.60;76.70
5520;DHT22;2782;52.362;10.012;2023-04-25T04:39:12;18.60;76.70
5520;DHT22;2782;52.362;10.012;2023-04-25T04:40:13;18.60;76.70
5520;DHT22;2782;52.362;10.012;2023-04-25T04:41:15;18.70;77.00
5520;DHT22;2782;52.362;10.012;2023-04-25T04:42:17;18.70;77.30
5520;DHT22;2782;52.362;10.012;2023-04-25T04:43:19;18.70;76.90
5520;DHT22;2782;52.362;10.012;2023-04-25T04:44:20;18.70;76.90
5520;DHT22;2782;52.362;10.012;2023-04-25T04:45:21;18.70;77.20
5520;DHT22;2782;52.362;10.012;2023-04-25T04:46:24;18.70;77.20
5520;DHT22;2782;52.362;10.012;2023-04-25T04:47:24;18.80;78.10
5520;DHT22;2782;52.362;10.012;2023-04-25T04:48:31;18.70;78.00
5520;DHT22;2782;52.362;10.012;2023-04-25T04:49:33;18.70;78.70
5520;DHT22;2782;52.362;10.012;2023-04-25T04:50:35;18.80;79.10
5520;DHT22;2782;52.362;10.012;2023-04-25T04:51:36;18.80;79.60
5520;DHT22;2782;52.362;10.012;2023-04-25T04:52:38;18.80;80.30
5520;DHT22;2782;52.362;10.012;2023-04-25T04:53:39;18.80;81.10
5520;DHT22;2782;52.362;10.012;2023-04-25T04:54:40;18.80;81.90
5520;DHT22;2782;52.362;10.012;2023-04-25T04:55:41;18.80;82.30
5520;DHT22;2782;52.362;10.012;2023-04-25T04:56:43;18.80;82.20
5520;DHT22;2782;52.362;10.012;2023-04-25T04:57:45;18.90;82.80
5520;DHT22;2782;52.362;10.012;2023-04-25T04:58:46;18.80;83.40
5520;DHT22;2782;52.362;10.012;2023-04-25T04:59:49;18.90;83.50
5520;DHT22;2782;52.362;10.012;2023-04-25T05:00:51;18.90;84.10
5520;DHT22;2782;52.362;10.012;2023-04-25T05:01:52;18.90;84.90
5520;DHT22;2782;52.362;10.012;2023-04-25T05:02:54;18.90;85.40
5520;DHT22;2782;52.362;10.012;2023-04-25T05:03:55;18.90;85.60
5520;DHT22;2782;52.362;10.012;2023-04-25T05:05:00;18.90;85.60
5520;DHT22;2782;52.362;10.012;2023-04-25T05:06:00;18.90;85.90
5520;DHT22;2782;52.362;10.012;2023-04-25T05:07:02;19.00;86.50
5520;DHT22;2782;52.362;10.012;2023-04-25T05:08:03;19.00;86.70
5520;DHT22;2782;52.362;10.012;2023-04-25T05:09:05;19.00;86.80
5520;DHT22;2782;52.362;10.012;2023-04-25T05:10:07;19.00;87.10
5520;DHT22;2782;52.362;10.012;2023-04-25T05:11:09;19.00;87.00
5520;DHT22;2782;52.362;10.012;2023-04-25T05:12:10;19.00;84.40
5520;DHT22;2782;52.362;10.012;2023-04-25T05:13:13;19.00;84.80
5520;DHT22;2782;52.362;10.012;2023-04-25T05:14:14;19.00;83.50
5520;DHT22;2782;52.362;10.012;2023-04-25T05:15:16;19.00;83.90
5520;DHT22;2782;52.362;10.012;2023-04-25T05:16:17;19.00;84.10
5520;DHT22;2782;52.362;10.012;2023-04-25T05:17:19;19.00;83.60
5520;DHT22;2782;52.362;10.012;2023-04-25T05:18:19;19.00;82.40
5520;DHT22;2782;52.362;10.012;2023-04-25T05:19:21;18.90;82.90
5520;DHT22;2782;52.362;10.012;2023-04-25T05:20:22;18.90;79.50
5520;DHT22;2782;52.362;10.012;2023-04-25T05:21:23;18.90;82.00
5520;DHT22;2782;52.362;10.012;2023-04-25T05:22:24;18.90;80.30
5520;DHT22;2782;52.362;10.012;2023-04-25T05:23:25;18.90;78.80
5520;DHT22;2782;52.362;10.012;2023-04-25T05:24:28;18.90;78.90
5520;DHT22;2782;52.362;10.012;2023-04-25T05:25:29;18.80;77.30
5520;DHT22;2782;52.362;10.012;2023-04-25T05:26:30;18.80;76.10
5520;DHT22;2782;52.362;10.012;2023-04-25T05:27:31;18.80;78.30
5520;DHT22;2782;52.362;10.012;2023-04-25T05:28:33;18.80;79.10
5520;DHT22;2782;52.362;10.012;2023-04-25T05:29:35;18.80;79.80
5520;DHT22;2782;52.362;10.012;2023-04-25T05:30:36;18.80;81.50
5520;DHT22;2782;52.362;10.012;2023-04-25T05:31:38;18.80;81.10
5520;DHT22;2782;52.362;10.012;2023-04-25T05:32:38;18.80;78.60
5520;DHT22;2782;52.362;10.012;2023-04-25T05:33:40;18.80;75.00
5520;DHT22;2782;52.362;10.012;2023-04-25T05:34:41;18.70;73.30
5520;DHT22;2782;52.362;10.012;2023-04-25T05:35:43;18.70;73.00
5520;DHT22;2782;52.362;10.012;2023-04-25T05:36:44;18.70;73.10
5520;DHT22;2782;52.362;10.012;2023-04-25T05:37:48;18.70;74.90
5520;DHT22;2782;52.362;10.012;2023-04-25T05:38:49;18.70;75.20
5520;DHT22;2782;52.362;10.012;2023-04-25T05:39:50;18.70;74.40
5520;DHT22;2782;52.362;10.012;2023-04-25T05:40:51;18.70;74.50
5520;DHT22;2782;52.362;10.012;2023-04-25T05:41:53;18.70;74.00
5520;DHT22;2782;52.362;10.012;2023-04-25T05:42:53;18.70;73.40
5520;DHT22;2782;52.362;10.012;2023-04-25T05:43:56;18.70;73.30
5520;DHT22;2782;52.362;10.012;2023-04-25T05:44:57;18.70;73.00
5520;DHT22;2782;52.362;10.012;2023-04-25T05:45:58;18.60;72.80
5520;DHT22;2782;52.362;10.012;2023-04-25T05:46:59;18.60;72.90
5520;DHT22;2782;52.362;10.012;2023-04-25T05:48:01;18.60;73.20
5520;DHT22;2782;52.362;10.012;2023-04-25T05:49:01;18.60;72.90
5520;DHT22;2782;52.362;10.012;2023-04-25T05:50:04;18.60;73.00
5520;DHT22;2782;52.362;10.012;2023-04-25T05:51:04;18.60;73.00
5520;DHT22;2782;52.362;10.012;2023-04-25T05:52:06;18.60;72.90
5520;DHT22;2782;52.362;10.012;2023-04-25T05:53:07;18.60;73.70
5520;DHT22;2782;52.362;10.012;2023-04-25T05:54:09;18.60;75.20
5520;DHT22;2782;52.362;10.012;2023-04-25T05:55:10;18.70;75.60
5520;DHT22;2782;52.362;10.012;2023-04-25T05:56:11;18.70;75.70
5520;DHT22;2782;52.362;10.012;2023-04-25T05:57:19;18.70;75.40
5520;DHT22;2782;52.362;10.012;2023-04-25T05:58:21;18.70;75.10
5520;DHT22;2782;52.362;10.012;2023-04-25T05:59:23;18.70;75.00
5520;DHT22;2782;52.362;10.012;2023-04-25T06:00:25;18.80;75.70
5520;DHT22;2782;52.362;10.012;2023-04-25T06:01:26;18.80;74.90
5520;DHT22;2782;52.362;10.012;2023-04-25T06:02:28;18.80;74.70
5520;DHT22;2782;52.362;10.012;2023-04-25T06:03:28;18.80;74.60
5520;DHT22;2782;52.362;10.012;2023-04-25T06:04:30;18.80;74.40
5520;DHT22;2782;52.362;10.012;2023-04-25T06:05:30;18.80;74.40
5520;DHT22;2782;52.362;10.012;2023-04-25T06:06:32;18.90;75.10
5520;DHT22;2782;52.362;10.012;2023-04-25T06:07:33;18.90;74.50
5520;DHT22;2782;52.362;10.012;2023-04-25T06:08:34;18.90;74.40
5520;DHT22;2782;52.362;10.012;2023-04-25T06:09:35;18.90;74.30
5520;DHT22;2782;52.362;10.012;2023-04-25T06:10:37;18.90;74.20
5520;DHT22;2782;52.362;10.012;2023-04-25T06:11:38;18.90;74.10
5520;DHT22;2782;52.362;10.012;2023-04-25T06:12:40;18.90;74.10
5520;DHT22;2782;52.362;10.012;2023-04-25T06:13:40;18.90;74.10
5520;DHT22;2782;52.362;10.012;2023-04-25T06:14:43;18.90;74.10
5520;DHT22;2782;52.362;10.012;2023-04-25T06:15:44;18.90;74.10
5520;DHT22;2782;52.362;10.012;2023-04-25T06:16:45;18.90;74.00
5520;DHT22;2782;52.362;10.012;2023-04-25T06:17:47;18.90;74.00
5520;DHT22;2782;52.362;10.012;2023-04-25T06:18:49;18.90;74.00
5520;DHT22;2782;52.362;10.012;2023-04-25T06:19:50;18.90;74.00
5520;DHT22;2782;52.362;10.012;2023-04-25T06:20:51;18.90;64.60
5520;DHT22;2782;52.362;10.012;2023-04-25T06:21:52;18.70;58.00
5520;DHT22;2782;52.362;10.012;2023-04-25T06:22:53;18.60;54.60
5520;DHT22;2782;52.362;10.012;2023-04-25T06:23:55;18.40;52.30
5520;DHT22;2782;52.362;10.012;2023-04-25T06:24:55;18.20;50.40
5520;DHT22;2782;52.362;10.012;2023-04-25T06:25:59;18.00;49.80
5520;DHT22;2782;52.362;10.012;2023-04-25T06:27:00;17.90;49.90
5520;DHT22;2782;52.362;10.012;2023-04-25T06:28:01;17.70;48.90
5520;DHT22;2782;52.362;10.012;2023-04-25T06:29:02;17.70;49.50
5520;DHT22;2782;52.362;10.012;2023-04-25T06:30:06;17.60;50.60
5520;DHT22;2782;52.362;10.012;2023-04-25T06:31:07;17.60;52.60
5520;DHT22;2782;52.362;10.012;2023-04-25T06:32:08;17.70;54.30
5520;DHT22;2782;52.362;10.012;2023-04-25T06:33:10;17.70;56.50
5520;DHT22;2782;52.362;10.012;2023-04-25T06:34:10;17.70;56.80
5520;DHT22;2782;52.362;10.012;2023-04-25T06:35:12;17.80;57.30
5520;DHT22;2782;52.362;10.012;2023-04-25T06:36:13;17.90;58.10
5520;DHT22;2782;52.362;10.012;2023-04-25T06:37:14;17.90;59.30
5520;DHT22;2782;52.362;10.012;2023-04-25T06:38:15;17.90;60.20